Monteagle, TN

5:07 PM CST on January 22, 2017 (GMT -0600)
Blackberry | | Change Station

Elev 1923 ft 35.22 °N, 85.83 °W | Updated 2 seconds ago

Rain
Rain
55.0 °F
Feels Like 55.0 °F
N
0.0
Wind Variable Wind from NE
Gusts 3.0 mph

Today
High -- | Low -- °F
--% Chance of Precip.
Yesterday
High -- | Low -- °F
Precip. -- in
Pressure 29.23 in
Visibility 5.0 miles
Clouds Scattered Clouds 2100 ft
Mostly Cloudy 3900 ft
Overcast 4700 ft
Dew Point 53 °F
Humidity 94%
Rainfall 0.64 in
Snow Depth Not available.
6:48 AM 5:01 PM
Waning Crescent, 23% visible
METAR KBGF 222255Z AUTO 01005KT 5SM SCT021 BKN039 OVC047 14/13 A2923 RMK
Pressure 29.23 in
Visibility 5.0 miles
Clouds Scattered Clouds 2100 ft
Mostly Cloudy 3900 ft
Overcast 4700 ft
Dew Point 53 °F
Humidity 94%
Rainfall 0.64 in
Snow Depth Not available.
6:48 AM 5:01 PM
Waning Crescent, 23% visible
METAR KBGF 222255Z AUTO 01005KT 5SM SCT021 BKN039 OVC047 14/13 A2923 RMK

Get Your Daily Forecast Email!

Thanks for signing up!

Be on the lookout for a verification email in your inbox.

You'll start receiving the daily forecast at 8 AM.

×

10-Day Weather Forecast

Almanac

Astronomy

Jan. 22, 2017 Rise Set
Actual Time
Civil Twilight
Nautical Twilight
Astronomical Twilight
Moon
Length of Visible Light
Length of Day
Tomorrow will be .
, % of the Moon is Illuminated

Today's Extremes

State Highs State Lows

Community

WunderPhotos

Upload Photos

1,962,540 photos uploaded!

WunderBlog® & News

Nearby

Air Quality

  Air Quality AQ Index Pollutant
Not available.

Snow Depth

Station Depth Elevation

Earthquake Activity

City Distance Mag. Time & Date
Minimum magnitude displayed is 2.5.

Coastal Water Temperatures

Place Temperature

Stations

Nearby Weather Stations

Station Location Temp. Windchill Dew Point Humidity Wind Precip. Elev Updated Type
                   

Watches & Warnings

There are currently no watches in effect.